createdAt,value
2019-01-21T00:01:00.436Z,58.50
2019-01-21T00:03:29.703Z,66.30
2019-01-21T00:05:59.047Z,58.63
2019-01-21T00:08:28.228Z,61.37
2019-01-21T00:10:57.556Z,59.83
2019-01-21T00:13:26.733Z,59.47
2019-01-21T00:15:55.979Z,64.10
2019-01-21T00:18:25.089Z,66.17
2019-01-21T00:20:54.231Z,54.23
2019-01-21T00:23:23.493Z,57.70
2019-01-21T00:25:52.757Z,60.70
2019-01-21T00:28:21.879Z,56.10
2019-01-21T00:30:51.067Z,63.00
2019-01-21T00:33:20.452Z,58.33
2019-01-21T00:35:49.646Z,60.83
2019-01-21T00:38:18.848Z,60.03
2019-01-21T00:40:47.971Z,62.20
2019-01-21T00:43:17.124Z,56.83
2019-01-21T00:45:48.718Z,53.17
2019-01-21T00:48:17.814Z,57.23
2019-01-21T00:50:46.912Z,59.07
2019-01-21T00:53:16.249Z,54.67
2019-01-21T00:55:45.343Z,60.97
2019-01-21T00:58:14.606Z,56.17
2019-01-21T01:00:44.057Z,62.60
2019-01-21T01:03:13.217Z,59.17
2019-01-21T01:05:42.355Z,58.60
2019-01-21T01:08:11.612Z,60.60
2019-01-21T01:10:40.730Z,59.70
2019-01-21T01:13:10.004Z,54.03
2019-01-21T01:15:39.227Z,55.00
2019-01-21T01:18:08.374Z,56.57
2019-01-21T01:20:37.653Z,54.83
2019-01-21T01:23:07.120Z,60.23
2019-01-21T01:25:36.340Z,62.30
2019-01-21T01:28:05.429Z,70.40
2019-01-21T01:30:34.666Z,53.63
2019-01-21T01:33:03.846Z,56.53
2019-01-21T01:35:33.010Z,51.60
2019-01-21T01:38:02.145Z,51.00
2019-01-21T01:40:31.376Z,61.03
2019-01-21T01:43:00.516Z,55.17
2019-01-21T01:45:29.769Z,61.23
2019-01-21T01:48:07.802Z,62.03
2019-01-21T01:50:37.023Z,51.87
2019-01-21T01:53:06.312Z,50.50
2019-01-21T01:55:36.255Z,60.30
2019-01-21T01:58:06.998Z,64.33
2019-01-21T02:00:36.749Z,59.23
2019-01-21T02:03:06.151Z,56.50
2019-01-21T02:05:35.283Z,56.37
2019-01-21T02:08:04.434Z,52.37
2019-01-21T02:10:34.034Z,58.20
2019-01-21T02:13:03.137Z,49.80
2019-01-21T02:15:32.370Z,55.23
2019-01-21T02:18:01.491Z,54.27
2019-01-21T02:20:30.633Z,60.43
2019-01-21T02:23:05.787Z,48.70
2019-01-21T02:25:45.505Z,54.67
2019-01-21T02:28:46.069Z,59.53
2019-01-21T02:31:35.697Z,57.30
2019-01-21T02:34:58.022Z,53.80
2019-01-21T02:38:02.504Z,58.90
2019-01-21T02:41:07.035Z,63.00
2019-01-21T02:44:29.547Z,55.57
2019-01-21T02:47:10.665Z,56.33
2019-01-21T02:50:23.088Z,57.43
2019-01-21T02:53:35.359Z,60.07
2019-01-21T02:56:50.289Z,60.13
2019-01-21T02:59:59.585Z,54.10
2019-01-21T03:03:05.742Z,68.87
2019-01-21T03:06:22.023Z,53.63
2019-01-21T03:09:38.124Z,61.90
2019-01-21T03:12:48.325Z,55.87
2019-01-21T03:16:01.659Z,60.80
2019-01-21T03:19:36.328Z,57.90
2019-01-21T03:22:41.436Z,58.17
2019-01-21T03:25:48.569Z,56.27
2019-01-21T03:28:58.691Z,55.90
2019-01-21T03:32:03.857Z,62.13
2019-01-21T03:35:13.065Z,59.47
2019-01-21T03:38:35.787Z,55.90
2019-01-21T03:41:43.151Z,61.50
2019-01-21T03:44:41.683Z,56.97
2019-01-21T03:47:33.715Z,59.50
2019-01-21T03:50:37.771Z,51.30
2019-01-21T03:53:46.278Z,67.77
2019-01-21T03:56:25.637Z,55.37
2019-01-21T03:59:43.915Z,56.57
2019-01-21T04:03:01.427Z,56.53
2019-01-21T04:05:45.788Z,51.20
2019-01-21T04:08:57.336Z,61.43
2019-01-21T04:12:15.297Z,62.17
2019-01-21T04:15:28.740Z,58.97
2019-01-21T04:18:30.298Z,61.67
2019-01-21T04:21:41.750Z,46.23
2019-01-21T04:24:48.606Z,54.07
2019-01-21T04:27:43.158Z,52.70
2019-01-21T04:30:41.185Z,56.17
2019-01-21T04:33:28.493Z,56.10
2019-01-21T04:36:31.029Z,56.00
2019-01-21T04:39:37.334Z,51.37
2019-01-21T04:42:38.994Z,60.50
2019-01-21T04:45:36.717Z,47.57
2019-01-21T04:48:46.408Z,56.63
2019-01-21T04:51:25.225Z,53.37
2019-01-21T04:54:35.582Z,58.73
2019-01-21T04:57:38.886Z,51.80
2019-01-21T05:00:17.460Z,49.33
2019-01-21T05:03:50.061Z,58.67
2019-01-21T05:07:03.181Z,54.07
2019-01-21T05:10:02.503Z,51.30
2019-01-21T05:13:02.260Z,55.67
2019-01-21T05:15:57.427Z,54.47
2019-01-21T05:18:51.826Z,56.30
2019-01-21T05:21:46.366Z,51.80
2019-01-21T05:24:47.839Z,50.53
2019-01-21T05:27:49.117Z,51.00
2019-01-21T05:30:44.601Z,53.20
2019-01-21T05:33:54.841Z,57.00
2019-01-21T05:36:50.558Z,47.77
2019-01-21T05:39:52.969Z,48.10
2019-01-21T05:42:58.206Z,64.80
2019-01-21T05:45:46.830Z,54.80
2019-01-21T05:48:52.054Z,53.87
2019-01-21T05:52:10.054Z,52.40
2019-01-21T05:55:04.575Z,54.73
2019-01-21T05:58:20.838Z,56.20
2019-01-21T06:01:13.371Z,53.30
2019-01-21T06:04:48.342Z,55.73
2019-01-21T06:08:12.638Z,55.93
2019-01-21T06:11:23.212Z,62.20
2019-01-21T06:14:52.326Z,57.90
2019-01-21T06:17:43.209Z,57.73
2019-01-21T06:20:49.264Z,55.03
2019-01-21T06:23:42.439Z,55.10
2019-01-21T06:26:52.609Z,64.55
2019-01-21T06:29:50.158Z,56.88
2019-01-21T06:32:54.978Z,64.03
2019-01-21T06:35:52.833Z,61.75
2019-01-21T06:38:53.401Z,64.90
2019-01-21T06:42:04.193Z,56.07
2019-01-21T06:45:10.539Z,58.80
2019-01-21T06:48:24.134Z,54.55
2019-01-21T06:51:27.211Z,57.90
2019-01-21T06:54:32.331Z,55.55
2019-01-21T06:57:50.247Z,56.17
2019-01-21T07:00:48.835Z,62.23
2019-01-21T07:04:11.038Z,55.70
2019-01-21T07:07:33.376Z,60.03
2019-01-21T07:10:45.989Z,60.47
2019-01-21T07:13:38.518Z,61.18
2019-01-21T07:16:41.546Z,57.55
2019-01-21T07:19:41.328Z,57.10
2019-01-21T07:22:32.751Z,59.75
2019-01-21T07:25:18.962Z,57.55
2019-01-21T07:28:19.552Z,57.30
2019-01-21T07:31:13.021Z,55.13
2019-01-21T07:34:10.241Z,56.35
2019-01-21T07:37:19.546Z,51.10
2019-01-21T07:40:51.027Z,49.10
2019-01-21T07:43:45.393Z,52.15
2019-01-21T07:46:38.541Z,55.40
2019-01-21T07:49:41.421Z,55.27
2019-01-21T07:52:57.615Z,55.12
2019-01-21T07:55:52.107Z,66.33
2019-01-21T07:59:06.960Z,76.40
2019-01-21T08:02:02.060Z,72.03
2019-01-21T08:04:48.975Z,64.40
2019-01-21T08:07:33.471Z,70.27
2019-01-21T08:10:36.868Z,57.30
2019-01-21T08:13:53.791Z,61.53
2019-01-21T08:17:14.998Z,63.47
2019-01-21T08:20:34.583Z,56.07
2019-01-21T08:23:46.599Z,60.60
2019-01-21T08:26:55.851Z,62.20
2019-01-21T08:30:04.245Z,56.80
2019-01-21T08:33:16.384Z,57.40
2019-01-21T08:36:31.497Z,57.33
2019-01-21T08:39:48.699Z,61.00
2019-01-21T08:43:14.393Z,53.33
2019-01-21T08:46:28.345Z,51.07
2019-01-21T08:49:41.210Z,56.93
2019-01-21T08:52:51.873Z,57.93
2019-01-21T08:56:00.921Z,55.40
2019-01-21T08:59:20.661Z,63.47
2019-01-21T09:02:33.166Z,54.80
2019-01-21T09:05:45.836Z,50.60
2019-01-21T09:09:11.605Z,59.00
2019-01-21T09:12:07.278Z,53.10
2019-01-21T09:15:28.755Z,55.40
2019-01-21T09:18:20.230Z,50.30
2019-01-21T09:21:22.504Z,55.33
2019-01-21T09:24:40.309Z,45.20
2019-01-21T09:27:44.662Z,49.67
2019-01-21T09:30:56.565Z,48.57
2019-01-21T09:33:56.375Z,43.73
2019-01-21T09:36:52.570Z,42.93
2019-01-21T09:40:02.885Z,42.70
2019-01-21T09:43:19.351Z,51.67
2019-01-21T09:46:42.303Z,44.50
2019-01-21T09:49:09.909Z,41.93
2019-01-21T09:51:53.062Z,52.90
2019-01-21T09:54:22.265Z,49.60
2019-01-21T09:56:53.280Z,54.00
2019-01-21T09:59:23.677Z,50.77
2019-01-21T10:01:56.589Z,43.87
2019-01-21T10:04:38.259Z,43.80
2019-01-21T10:07:45.571Z,40.07
2019-01-21T10:10:21.771Z,42.93
2019-01-21T10:13:37.331Z,47.83
2019-01-21T10:16:39.234Z,41.27
2019-01-21T10:19:36.607Z,44.47
2019-01-21T10:22:47.377Z,42.60
2019-01-21T10:25:38.432Z,46.70
2019-01-21T10:28:37.284Z,46.03
2019-01-21T10:31:23.014Z,43.03
2019-01-21T10:34:39.884Z,41.20
2019-01-21T10:37:33.581Z,42.77
2019-01-21T10:40:20.522Z,50.37
2019-01-21T10:43:38.523Z,46.60
2019-01-21T10:47:01.050Z,43.37
2019-01-21T10:50:29.705Z,46.53
2019-01-21T10:53:16.745Z,41.80
2019-01-21T10:56:29.633Z,45.60
2019-01-21T10:59:40.642Z,44.97
2019-01-21T11:02:46.497Z,48.03
2019-01-21T11:05:43.826Z,42.50
2019-01-21T11:08:39.272Z,45.80
2019-01-21T11:11:45.488Z,44.93
2019-01-21T11:14:54.934Z,42.60
2019-01-21T11:18:10.055Z,47.87
2019-01-21T11:21:04.516Z,52.23
2019-01-21T11:24:13.725Z,44.40
2019-01-21T11:27:19.915Z,44.50
2019-01-21T11:30:42.979Z,39.53
2019-01-21T11:33:37.580Z,44.10
2019-01-21T11:36:54.147Z,44.50
2019-01-21T11:39:46.674Z,43.97
2019-01-21T11:42:51.423Z,42.63
2019-01-21T11:46:09.751Z,46.57
2019-01-21T11:49:00.932Z,50.17
2019-01-21T11:52:07.473Z,45.00
2019-01-21T11:55:17.391Z,46.23
2019-01-21T11:58:11.161Z,51.37
2019-01-21T12:01:17.329Z,47.83
2019-01-21T12:04:22.389Z,49.43
2019-01-21T12:07:47.734Z,46.77
2019-01-21T12:10:47.886Z,49.33
2019-01-21T12:13:40.779Z,44.67
2019-01-21T12:16:44.042Z,43.97
2019-01-21T12:19:57.878Z,47.23
2019-01-21T12:23:10.819Z,45.13
2019-01-21T12:25:49.545Z,42.87
2019-01-21T12:28:25.947Z,46.60
2019-01-21T12:31:30.743Z,45.30
2019-01-21T12:35:00.279Z,44.07
2019-01-21T12:37:58.671Z,45.27
2019-01-21T12:40:53.406Z,42.20
2019-01-21T12:43:49.768Z,46.73
2019-01-21T12:46:47.078Z,45.93
2019-01-21T12:49:36.618Z,43.80
2019-01-21T12:52:40.367Z,46.07
2019-01-21T12:55:54.763Z,46.57
2019-01-21T12:58:31.529Z,43.90
2019-01-21T13:01:44.282Z,42.50
2019-01-21T13:04:37.381Z,43.07
2019-01-21T13:08:04.337Z,44.33
2019-01-21T13:11:32.677Z,43.60
2019-01-21T13:14:41.831Z,52.00
2019-01-21T13:17:33.327Z,42.10
2019-01-21T13:20:32.716Z,44.20
2019-01-21T13:23:45.482Z,52.40
2019-01-21T13:27:10.614Z,44.83
2019-01-21T13:30:24.054Z,45.67
2019-01-21T13:33:14.727Z,45.77
2019-01-21T13:36:28.047Z,40.37
2019-01-21T13:39:46.097Z,47.20
2019-01-21T13:42:26.953Z,45.47
2019-01-21T13:45:37.720Z,41.60
2019-01-21T13:48:37.503Z,40.67
2019-01-21T13:51:43.412Z,40.10
2019-01-21T13:54:48.634Z,43.10
2019-01-21T13:57:41.458Z,42.47
2019-01-21T14:00:41.825Z,41.77
2019-01-21T14:03:51.219Z,42.43
2019-01-21T14:06:59.486Z,45.20
2019-01-21T14:10:15.875Z,38.13
2019-01-21T14:13:12.741Z,42.23
2019-01-21T14:15:56.710Z,44.27
2019-01-21T14:18:44.364Z,45.07
2019-01-21T14:21:49.800Z,45.30
2019-01-21T14:24:43.623Z,42.00
2019-01-21T14:27:38.744Z,39.03
2019-01-21T14:30:56.943Z,48.80
2019-01-21T14:33:40.711Z,36.80
2019-01-21T14:36:41.191Z,41.53
2019-01-21T14:39:51.707Z,49.80
2019-01-21T14:42:50.750Z,46.47
2019-01-21T14:46:04.837Z,40.10
2019-01-21T14:48:54.756Z,41.80
2019-01-21T14:51:58.110Z,45.50
2019-01-21T14:55:26.540Z,45.67
2019-01-21T14:58:23.133Z,43.60
2019-01-21T15:01:26.893Z,49.33
2019-01-21T15:04:53.763Z,42.97
2019-01-21T15:07:35.526Z,46.07
2019-01-21T15:10:50.532Z,44.10
2019-01-21T15:14:02.692Z,48.27
2019-01-21T15:17:31.050Z,36.73
2019-01-21T15:20:11.536Z,41.47
2019-01-21T15:23:07.596Z,41.43
2019-01-21T15:26:14.922Z,50.50
2019-01-21T15:29:21.443Z,41.00
2019-01-21T15:32:26.596Z,41.33
2019-01-21T15:35:58.147Z,40.20
2019-01-21T15:39:11.076Z,37.40
2019-01-21T15:42:19.944Z,43.30
2019-01-21T15:45:33.052Z,39.77
2019-01-21T15:48:24.993Z,40.07
2019-01-21T15:51:37.811Z,41.93
2019-01-21T15:54:35.109Z,39.93
2019-01-21T15:57:24.819Z,51.50
2019-01-21T16:00:30.947Z,48.63
2019-01-21T16:03:29.659Z,42.93
2019-01-21T16:06:46.465Z,44.20
2019-01-21T16:09:49.719Z,47.43
2019-01-21T16:13:01.907Z,43.43
2019-01-21T16:15:57.904Z,52.03
2019-01-21T16:18:48.994Z,54.47
2019-01-21T16:21:51.524Z,48.43
2019-01-21T16:24:57.758Z,55.50
2019-01-21T16:28:11.064Z,50.57
2019-01-21T16:30:47.143Z,44.40
2019-01-21T16:34:11.624Z,45.47
2019-01-21T16:37:12.121Z,48.03
2019-01-21T16:40:17.262Z,48.10
2019-01-21T16:42:46.607Z,53.10
2019-01-21T16:45:17.008Z,47.77
2019-01-21T16:47:46.132Z,43.47
2019-01-21T16:50:15.384Z,49.20
2019-01-21T16:52:47.429Z,53.00
2019-01-21T16:55:17.032Z,46.10
2019-01-21T16:57:46.139Z,53.63
2019-01-21T17:00:16.019Z,45.90
2019-01-21T17:02:45.236Z,55.70
2019-01-21T17:05:15.324Z,49.20
2019-01-21T17:07:45.935Z,50.33
2019-01-21T17:10:15.285Z,54.20
2019-01-21T17:12:44.424Z,57.90
2019-01-21T17:15:13.826Z,56.17
2019-01-21T17:17:44.335Z,49.43
2019-01-21T17:20:16.904Z,53.57
2019-01-21T17:22:46.162Z,53.17
2019-01-21T17:25:15.895Z,53.50
2019-01-21T17:27:45.257Z,54.50
2019-01-21T17:30:15.607Z,48.90
2019-01-21T17:32:44.858Z,48.70
2019-01-21T17:35:14.275Z,48.47
2019-01-21T17:37:43.344Z,48.13
2019-01-21T17:40:14.216Z,57.10
2019-01-21T17:42:43.514Z,50.93
2019-01-21T17:45:15.766Z,59.40
2019-01-21T17:47:45.085Z,61.70
2019-01-21T17:50:15.919Z,60.17
2019-01-21T17:52:45.307Z,65.30
2019-01-21T17:55:14.992Z,56.60
2019-01-21T17:57:44.187Z,57.07
2019-01-21T18:00:19.109Z,49.97
2019-01-21T18:02:48.277Z,54.60
2019-01-21T18:05:17.512Z,60.50
2019-01-21T18:07:46.856Z,68.57
2019-01-21T18:10:19.990Z,69.23
2019-01-21T18:12:49.051Z,71.83
2019-01-21T18:15:18.141Z,68.27
2019-01-21T18:17:47.259Z,63.80
2019-01-21T18:20:20.414Z,63.33
2019-01-21T18:22:53.598Z,69.70
2019-01-21T18:25:24.764Z,55.50
2019-01-21T18:27:53.962Z,61.27
2019-01-21T18:30:26.651Z,61.33
2019-01-21T18:33:02.120Z,55.73
2019-01-21T18:35:31.451Z,59.77
2019-01-21T18:38:02.487Z,71.73
2019-01-21T18:40:31.827Z,65.37
2019-01-21T18:43:01.066Z,67.83
2019-01-21T18:45:30.613Z,61.13
2019-01-21T18:47:59.760Z,67.93
2019-01-21T18:50:28.864Z,69.93
2019-01-21T18:52:57.989Z,58.70
2019-01-21T18:55:27.098Z,57.60
2019-01-21T18:57:56.352Z,62.33
2019-01-21T19:00:26.707Z,56.07
2019-01-21T19:02:55.801Z,58.03
2019-01-21T19:05:25.130Z,57.00
2019-01-21T19:07:54.469Z,63.13
2019-01-21T19:10:25.754Z,73.37
2019-01-21T19:12:54.908Z,70.53
2019-01-21T19:15:29.678Z,60.83
2019-01-21T19:17:58.818Z,61.80
2019-01-21T19:20:31.290Z,66.40
2019-01-21T19:23:01.642Z,67.83
2019-01-21T19:25:32.219Z,68.90
2019-01-21T19:28:01.546Z,70.63
2019-01-21T19:30:30.750Z,68.87
2019-01-21T19:33:00.204Z,73.60
2019-01-21T19:35:33.119Z,68.37
2019-01-21T19:38:02.401Z,66.03
2019-01-21T19:40:32.269Z,74.93
2019-01-21T19:43:01.938Z,66.83
2019-01-21T19:45:31.359Z,70.70
2019-01-21T19:48:00.757Z,68.67
2019-01-21T19:50:30.544Z,67.97
2019-01-21T19:52:59.819Z,73.53
2019-01-21T19:55:32.718Z,65.43
2019-01-21T19:58:02.385Z,79.13
2019-01-21T20:00:31.515Z,82.23
2019-01-21T20:03:01.930Z,81.77
2019-01-21T20:05:31.582Z,92.53
2019-01-21T20:08:00.856Z,91.03
2019-01-21T20:10:30.396Z,101.80
2019-01-21T20:12:59.536Z,111.83
2019-01-21T20:15:29.485Z,97.93
2019-01-21T20:18:00.553Z,97.23
2019-01-21T20:20:32.286Z,95.57
2019-01-21T20:23:01.440Z,111.53
2019-01-21T20:25:30.860Z,97.80
2019-01-21T20:28:03.631Z,81.57
2019-01-21T20:30:32.996Z,81.20
2019-01-21T20:33:02.641Z,74.83
2019-01-21T20:35:32.256Z,86.30
2019-01-21T20:38:01.361Z,80.97
2019-01-21T20:40:30.479Z,80.20
2019-01-21T20:42:59.803Z,76.27
2019-01-21T20:45:29.165Z,67.87
2019-01-21T20:47:58.321Z,71.03
2019-01-21T20:50:29.308Z,71.77
2019-01-21T20:52:58.661Z,60.07
2019-01-21T20:55:28.806Z,72.73
2019-01-21T20:57:57.945Z,67.17
2019-01-21T21:00:28.960Z,67.50
2019-01-21T21:03:02.425Z,78.80
2019-01-21T21:05:31.501Z,73.47
2019-01-21T21:08:00.548Z,63.17
2019-01-21T21:10:29.800Z,67.83
2019-01-21T21:12:59.005Z,69.20
2019-01-21T21:15:30.621Z,73.90
2019-01-21T21:17:59.693Z,75.67
2019-01-21T21:20:29.096Z,74.60
2019-01-21T21:22:58.253Z,77.37
2019-01-21T21:25:27.452Z,79.13
2019-01-21T21:27:56.523Z,83.83
2019-01-21T21:30:27.956Z,81.70
2019-01-21T21:32:57.270Z,74.73
2019-01-21T21:35:26.419Z,84.37
2019-01-21T21:37:55.463Z,84.27
2019-01-21T21:40:24.683Z,78.30
2019-01-21T21:42:53.755Z,73.47
2019-01-21T21:45:22.860Z,83.42
2019-01-21T21:47:52.250Z,73.53
2019-01-21T21:50:27.041Z,75.10
2019-01-21T21:52:56.455Z,72.00
2019-01-21T21:55:25.625Z,76.00
2019-01-21T21:57:54.693Z,79.60
2019-01-21T22:00:25.258Z,75.60
2019-01-21T22:02:54.494Z,77.95
2019-01-21T22:05:24.545Z,76.37
2019-01-21T22:07:53.643Z,75.72
2019-01-21T22:10:24.887Z,81.10
2019-01-21T22:12:54.044Z,71.82
2019-01-21T22:15:23.504Z,83.10
2019-01-21T22:17:52.600Z,74.58
2019-01-21T22:20:23.228Z,75.85
2019-01-21T22:22:52.506Z,81.57
2019-01-21T22:25:22.186Z,80.10
2019-01-21T22:27:51.296Z,81.97
2019-01-21T22:30:25.517Z,79.47
2019-01-21T22:32:54.620Z,80.27
2019-01-21T22:35:23.886Z,81.00
2019-01-21T22:37:54.997Z,78.07
2019-01-21T22:40:24.751Z,81.67
2019-01-21T22:42:53.878Z,77.60
2019-01-21T22:45:23.470Z,80.90
2019-01-21T22:47:52.887Z,77.20
2019-01-21T22:50:22.363Z,86.92
2019-01-21T22:52:54.343Z,79.73
2019-01-21T22:55:23.779Z,83.53
2019-01-21T22:57:52.834Z,74.37
2019-01-21T23:00:46.341Z,78.30
2019-01-21T23:03:15.992Z,81.70
2019-01-21T23:05:48.089Z,77.07
2019-01-21T23:08:17.332Z,72.90
2019-01-21T23:10:46.523Z,76.93
2019-01-21T23:13:15.641Z,85.90
2019-01-21T23:15:44.872Z,78.50
2019-01-21T23:18:13.993Z,75.40
2019-01-21T23:20:43.087Z,73.27
2019-01-21T23:23:17.115Z,72.77
2019-01-21T23:25:46.399Z,80.97
2019-01-21T23:28:15.536Z,81.02
2019-01-21T23:30:44.633Z,70.28
2019-01-21T23:33:13.975Z,77.60
2019-01-21T23:35:43.268Z,81.05
2019-01-21T23:38:12.541Z,75.73
2019-01-21T23:40:41.637Z,71.30
2019-01-21T23:43:10.729Z,78.70
2019-01-21T23:45:39.992Z,70.85
2019-01-21T23:48:09.479Z,80.25
2019-01-21T23:50:38.706Z,70.15
2019-01-21T23:53:07.794Z,76.62
2019-01-21T23:55:36.923Z,71.00
2019-01-21T23:58:06.163Z,69.45
